• Join FlightAware (Why Join?)
  • Login
  • US Flag 
07:12AM EDT


 

Airport Tracker/Info


-or-


 

Live Flight TrackerFlight Track Log ✈ GLR584 ✈ 08-May-2013 ✈ CYQQ - CYVR

Flight Track Log - Related Links

Times and Time Zones

All times are in EDT time to prevent confusion due to time zone crossing. See the GLR584 flight status page for this flight to view local times or setup timezone preferences in your user account.

Time Position Orientation Groundspeed Altitude Reporting Facility
EDT Latitude Longitude Course Direction KTS MPH feet Rate Location/Type
12:34PM 49.6667 -124.7333 114° Southeast 180 207 5,600  Level Vancouver Center
12:35PM 49.6500 -124.6500 107° East 200 230 6,100 240 Climbing Vancouver Center
12:36PM 49.6167 -124.5500 117° Southeast 250 288 6,100  Level Vancouver Center
12:37PM 49.5833 -124.4500 117° Southeast 260 299 6,100 -60 Level Vancouver Center
12:38PM 49.5500 -124.3333 114° Southeast 260 299 6,000  Descending Vancouver Center
12:39PM 49.5167 -124.2333 117° Southeast 260 299 6,100  Climbing Vancouver Center
12:40PM 49.5000 -124.1333 104° East 260 299 6,100 -60 Level Vancouver Center
12:41PM 49.4500 -124.0333 128° Southeast 260 299 6,000 -60 Descending Vancouver Center
12:42PM 49.4333 -123.9333 104° East 260 299 6,000  Level Vancouver Center
12:43PM 49.4333 -123.8167 90° East 260 299 6,000  Level Vancouver Center
12:44PM 49.4167 -123.7000 102° East 260 299 6,100  Climbing Vancouver Center
12:45PM 49.4000 -123.6000 104° East 260 299 6,000  Descending Vancouver Center
12:46PM 49.3333 -123.5667 162° South 250 288 6,100 -300 Climbing Vancouver Center
12:47PM 49.2833 -123.6000 204° Southwest 240 276 5,500 -900 Descending Vancouver Center
12:48PM 49.2167 -123.6000 180° South 230 265 4,400 -900 Descending Vancouver Center
12:49PM 49.2167 -123.5000 90° East 220 253 3,700 -840 Descending Vancouver Center
12:50PM 49.2000 -123.4167 107° East 210 242 2,800 -900 Descending Vancouver Center
12:51PM 49.2000 -123.3333 90° East 170 196 1,900 -840 Descending Vancouver Center
12:52PM 49.2000 -123.2833 90° East 150 173 1,200 -720 Descending Vancouver Center
12:53PM 49.1833 -123.2167 111° Southeast 130 150 500 -600 Descending Vancouver Center
12:54PM 49.1833 -123.1833 90° East 100 115 100 -420 Descending Vancouver Center